sensor_id;sensor_type;location;lat;lon;timestamp;pressure;altitude;pressure_sealevel;temperature;humidity
73692;BME280;61996;49.910;35.562;2023-08-17T00:02:40;99861.44;;;23.08;58.36
73692;BME280;61996;49.910;35.562;2023-08-17T00:05:44;99865.00;;;23.09;58.56
73692;BME280;61996;49.910;35.562;2023-08-17T00:08:46;99868.22;;;23.20;57.88
73692;BME280;61996;49.910;35.562;2023-08-17T00:11:49;99856.25;;;23.07;58.41
73692;BME280;61996;49.910;35.562;2023-08-17T00:14:54;99867.81;;;23.07;58.13
73692;BME280;61996;49.910;35.562;2023-08-17T00:17:57;99860.94;;;23.05;58.25
73692;BME280;61996;49.910;35.562;2023-08-17T00:21:00;99869.00;;;23.05;58.35
73692;BME280;61996;49.910;35.562;2023-08-17T00:24:03;99859.06;;;22.97;58.55
73692;BME280;61996;49.910;35.562;2023-08-17T00:27:06;99864.81;;;23.10;58.05
73692;BME280;61996;49.910;35.562;2023-08-17T00:30:11;99856.59;;;23.04;58.06
73692;BME280;61996;49.910;35.562;2023-08-17T00:33:14;99862.59;;;22.97;58.27
73692;BME280;61996;49.910;35.562;2023-08-17T00:36:16;99852.66;;;22.90;58.40
73692;BME280;61996;49.910;35.562;2023-08-17T00:39:19;99856.19;;;22.90;58.47
73692;BME280;61996;49.910;35.562;2023-08-17T00:42:22;99850.75;;;22.82;58.69
73692;BME280;61996;49.910;35.562;2023-08-17T00:45:26;99857.41;;;22.78;59.25
73692;BME280;61996;49.910;35.562;2023-08-17T00:48:29;99861.25;;;22.76;58.87
73692;BME280;61996;49.910;35.562;2023-08-17T00:51:32;99863.63;;;22.79;58.60
73692;BME280;61996;49.910;35.562;2023-08-17T00:54:36;99857.88;;;22.74;58.71
73692;BME280;61996;49.910;35.562;2023-08-17T00:57:39;99865.56;;;22.68;59.08
73692;BME280;61996;49.910;35.562;2023-08-17T01:00:43;99865.03;;;22.65;59.18
73692;BME280;61996;49.910;35.562;2023-08-17T01:03:46;99853.69;;;22.71;59.09
73692;BME280;61996;49.910;35.562;2023-08-17T01:06:49;99858.13;;;22.54;59.54
73692;BME280;61996;49.910;35.562;2023-08-17T01:09:52;99855.03;;;22.67;59.08
73692;BME280;61996;49.910;35.562;2023-08-17T01:12:57;99864.38;;;22.63;59.10
73692;BME280;61996;49.910;35.562;2023-08-17T01:16:05;99863.47;;;22.54;59.21
73692;BME280;61996;49.910;35.562;2023-08-17T01:19:09;99862.16;;;22.58;59.02
73692;BME280;61996;49.910;35.562;2023-08-17T01:22:17;99862.16;;;22.58;59.20
73692;BME280;61996;49.910;35.562;2023-08-17T01:25:21;99857.84;;;22.39;59.73
73692;BME280;61996;49.910;35.562;2023-08-17T01:28:24;99850.47;;;22.41;59.69
73692;BME280;61996;49.910;35.562;2023-08-17T01:31:28;99854.22;;;22.49;59.29
73692;BME280;61996;49.910;35.562;2023-08-17T01:34:35;99851.31;;;22.42;59.43
73692;BME280;61996;49.910;35.562;2023-08-17T01:37:42;99847.44;;;22.36;59.42
73692;BME280;61996;49.910;35.562;2023-08-17T01:40:47;99861.59;;;22.29;59.56
73692;BME280;61996;49.910;35.562;2023-08-17T01:43:50;99862.78;;;22.26;59.60
73692;BME280;61996;49.910;35.562;2023-08-17T01:46:53;99860.22;;;22.25;59.63
73692;BME280;61996;49.910;35.562;2023-08-17T01:49:56;99849.66;;;22.23;59.76
73692;BME280;61996;49.910;35.562;2023-08-17T01:53:01;99861.38;;;22.22;59.49
73692;BME280;61996;49.910;35.562;2023-08-17T01:56:05;99857.91;;;22.30;59.19
73692;BME280;61996;49.910;35.562;2023-08-17T01:59:08;99855.38;;;22.72;58.53
73692;BME280;61996;49.910;35.562;2023-08-17T02:02:10;99849.75;;;22.83;57.81
73692;BME280;61996;49.910;35.562;2023-08-17T02:08:50;99860.47;;;22.83;57.75
73692;BME280;61996;49.910;35.562;2023-08-17T02:11:54;99859.78;;;22.81;57.92
73692;BME280;61996;49.910;35.562;2023-08-17T02:14:57;99858.91;;;22.81;57.74
73692;BME280;61996;49.910;35.562;2023-08-17T02:18:00;99853.97;;;22.86;57.67
73692;BME280;61996;49.910;35.562;2023-08-17T02:21:03;99848.91;;;22.83;57.81
73692;BME280;61996;49.910;35.562;2023-08-17T02:24:06;99866.00;;;22.82;57.90
73692;BME280;61996;49.910;35.562;2023-08-17T02:27:10;99858.75;;;22.74;58.26
73692;BME280;61996;49.910;35.562;2023-08-17T02:30:13;99855.28;;;22.82;58.07
73692;BME280;61996;49.910;35.562;2023-08-17T02:33:16;99858.41;;;22.77;57.71
73692;BME280;61996;49.910;35.562;2023-08-17T02:36:19;99864.25;;;22.73;57.89
73692;BME280;61996;49.910;35.562;2023-08-17T02:39:22;99859.09;;;22.79;57.78
73692;BME280;61996;49.910;35.562;2023-08-17T02:42:26;99869.50;;;22.82;57.96
73692;BME280;61996;49.910;35.562;2023-08-17T02:45:29;99870.09;;;22.68;58.02
73692;BME280;61996;49.910;35.562;2023-08-17T02:48:32;99872.16;;;22.74;57.79
73692;BME280;61996;49.910;35.562;2023-08-17T02:51:34;99875.50;;;22.76;57.69
73692;BME280;61996;49.910;35.562;2023-08-17T02:54:37;99882.88;;;22.74;57.79
73692;BME280;61996;49.910;35.562;2023-08-17T02:57:41;99872.81;;;22.76;57.76
73692;BME280;61996;49.910;35.562;2023-08-17T03:00:44;99877.34;;;22.76;57.87
73692;BME280;61996;49.910;35.562;2023-08-17T03:03:47;99880.38;;;22.81;57.93
73692;BME280;61996;49.910;35.562;2023-08-17T03:06:50;99884.00;;;22.71;58.05
73692;BME280;61996;49.910;35.562;2023-08-17T03:09:53;99881.25;;;22.81;57.92
73692;BME280;61996;49.910;35.562;2023-08-17T03:12:57;99879.88;;;22.77;57.76
73692;BME280;61996;49.910;35.562;2023-08-17T03:16:00;99876.00;;;22.80;58.01
73692;BME280;61996;49.910;35.562;2023-08-17T03:19:03;99879.25;;;22.83;57.69
73692;BME280;61996;49.910;35.562;2023-08-17T03:22:09;99884.75;;;22.82;57.87
73692;BME280;61996;49.910;35.562;2023-08-17T03:25:12;99877.41;;;22.84;58.11
73692;BME280;61996;49.910;35.562;2023-08-17T03:28:16;99886.44;;;22.83;58.01
73692;BME280;61996;49.910;35.562;2023-08-17T03:31:19;99893.72;;;22.90;58.25
73692;BME280;61996;49.910;35.562;2023-08-17T03:34:22;99891.22;;;22.89;58.10
73692;BME280;61996;49.910;35.562;2023-08-17T03:37:25;99892.56;;;22.93;57.88
73692;BME280;61996;49.910;35.562;2023-08-17T03:40:29;99886.69;;;22.89;58.19
73692;BME280;61996;49.910;35.562;2023-08-17T03:43:33;99896.28;;;23.00;57.89
73692;BME280;61996;49.910;35.562;2023-08-17T03:46:36;99887.75;;;23.05;57.64
73692;BME280;61996;49.910;35.562;2023-08-17T03:49:39;99891.75;;;23.01;58.04
73692;BME280;61996;49.910;35.562;2023-08-17T03:52:41;99894.31;;;23.02;57.88
73692;BME280;61996;49.910;35.562;2023-08-17T03:55:45;99896.44;;;22.98;58.11
73692;BME280;61996;49.910;35.562;2023-08-17T03:58:49;99883.25;;;23.05;57.93
73692;BME280;61996;49.910;35.562;2023-08-17T04:01:52;99900.00;;;23.07;58.19
73692;BME280;61996;49.910;35.562;2023-08-17T04:04:55;99904.38;;;23.08;58.41
73692;BME280;61996;49.910;35.562;2023-08-17T04:07:58;99904.22;;;23.10;58.25
73692;BME280;61996;49.910;35.562;2023-08-17T04:11:04;99895.84;;;23.13;58.41
73692;BME280;61996;49.910;35.562;2023-08-17T04:14:08;99901.41;;;23.19;58.25
73692;BME280;61996;49.910;35.562;2023-08-17T04:17:11;99902.91;;;23.22;57.83
73692;BME280;61996;49.910;35.562;2023-08-17T04:20:14;99896.41;;;23.24;57.76
73692;BME280;61996;49.910;35.562;2023-08-17T04:23:17;99900.59;;;23.27;57.73
73692;BME280;61996;49.910;35.562;2023-08-17T04:26:20;99905.16;;;23.35;57.67
73692;BME280;61996;49.910;35.562;2023-08-17T04:29:24;99906.50;;;23.31;57.91
73692;BME280;61996;49.910;35.562;2023-08-17T04:32:27;99904.16;;;23.36;58.18
73692;BME280;61996;49.910;35.562;2023-08-17T04:35:30;99899.97;;;23.33;58.34
73692;BME280;61996;49.910;35.562;2023-08-17T04:38:33;99903.69;;;23.40;58.15
73692;BME280;61996;49.910;35.562;2023-08-17T04:41:36;99906.03;;;23.43;57.62
73692;BME280;61996;49.910;35.562;2023-08-17T04:44:40;99909.91;;;23.49;58.04
73692;BME280;61996;49.910;35.562;2023-08-17T04:47:43;99909.59;;;23.52;58.16
73692;BME280;61996;49.910;35.562;2023-08-17T04:50:46;99903.22;;;23.53;57.75
73692;BME280;61996;49.910;35.562;2023-08-17T04:53:48;99897.53;;;23.56;57.75
73692;BME280;61996;49.910;35.562;2023-08-17T04:56:51;99900.59;;;23.61;57.69
73692;BME280;61996;49.910;35.562;2023-08-17T04:59:55;99902.75;;;23.58;57.91
73692;BME280;61996;49.910;35.562;2023-08-17T05:02:58;99907.47;;;23.64;57.98
73692;BME280;61996;49.910;35.562;2023-08-17T05:06:01;99902.63;;;23.67;57.88
73692;BME280;61996;49.910;35.562;2023-08-17T05:09:05;99905.16;;;23.69;57.86
73692;BME280;61996;49.910;35.562;2023-08-17T05:12:08;99906.50;;;23.73;57.99
73692;BME280;61996;49.910;35.562;2023-08-17T05:15:12;99908.19;;;23.74;57.75
73692;BME280;61996;49.910;35.562;2023-08-17T05:18:15;99915.41;;;23.73;57.99
73692;BME280;61996;49.910;35.562;2023-08-17T05:21:18;99913.38;;;23.75;58.04
73692;BME280;61996;49.910;35.562;2023-08-17T05:24:21;99915.44;;;23.82;57.99
73692;BME280;61996;49.910;35.562;2023-08-17T05:27:23;99914.94;;;23.86;58.06
73692;BME280;61996;49.910;35.562;2023-08-17T05:30:28;99915.91;;;23.85;57.82
73692;BME280;61996;49.910;35.562;2023-08-17T05:33:31;99918.28;;;23.88;57.82
73692;BME280;61996;49.910;35.562;2023-08-17T05:36:34;99915.91;;;23.85;58.15
73692;BME280;61996;49.910;35.562;2023-08-17T05:39:37;99922.34;;;23.92;58.16
73692;BME280;61996;49.910;35.562;2023-08-17T05:42:40;99927.72;;;23.92;58.00
73692;BME280;61996;49.910;35.562;2023-08-17T05:45:45;99926.38;;;23.96;58.05
73692;BME280;61996;49.910;35.562;2023-08-17T05:48:48;99933.25;;;23.99;58.29
73692;BME280;61996;49.910;35.562;2023-08-17T05:51:51;99934.59;;;24.03;57.71
73692;BME280;61996;49.910;35.562;2023-08-17T05:54:54;99932.94;;;24.02;58.17
73692;BME280;61996;49.910;35.562;2023-08-17T05:57:57;99925.06;;;24.09;58.14
73692;BME280;61996;49.910;35.562;2023-08-17T06:01:10;99927.06;;;24.06;58.32
73692;BME280;61996;49.910;35.562;2023-08-17T06:04:13;99929.25;;;24.11;58.25
73692;BME280;61996;49.910;35.562;2023-08-17T06:07:16;99928.75;;;24.16;57.86
73692;BME280;61996;49.910;35.562;2023-08-17T06:10:19;99929.94;;;24.13;58.36
73692;BME280;61996;49.910;35.562;2023-08-17T06:13:26;99928.09;;;24.14;58.19
73692;BME280;61996;49.910;35.562;2023-08-17T06:16:30;99926.41;;;24.21;57.97
73692;BME280;61996;49.910;35.562;2023-08-17T06:19:33;99936.81;;;24.24;57.69
73692;BME280;61996;49.910;35.562;2023-08-17T06:22:36;99940.16;;;24.26;57.90
73692;BME280;61996;49.910;35.562;2023-08-17T06:25:39;99939.69;;;24.30;57.62
73692;BME280;61996;49.910;35.562;2023-08-17T06:28:41;99938.84;;;24.30;57.71
73692;BME280;61996;49.910;35.562;2023-08-17T06:31:46;99938.53;;;24.33;58.16
73692;BME280;61996;49.910;35.562;2023-08-17T06:34:49;99939.34;;;24.33;57.72
73692;BME280;61996;49.910;35.562;2023-08-17T06:37:51;99937.69;;;24.41;58.29
73692;BME280;61996;49.910;35.562;2023-08-17T06:40:58;99941.72;;;24.45;57.92
73692;BME280;61996;49.910;35.562;2023-08-17T06:44:00;99943.22;;;24.47;57.62
73692;BME280;61996;49.910;35.562;2023-08-17T06:47:05;99933.34;;;24.48;57.97
73692;BME280;61996;49.910;35.562;2023-08-17T06:50:08;99929.97;;;24.54;57.66
73692;BME280;61996;49.910;35.562;2023-08-17T06:53:13;99937.03;;;24.55;57.48
73692;BME280;61996;49.910;35.562;2023-08-17T06:56:16;99933.00;;;24.59;57.38
73692;BME280;61996;49.910;35.562;2023-08-17T06:59:19;99937.53;;;24.58;57.62
73692;BME280;61996;49.910;35.562;2023-08-17T07:02:23;99925.75;;;24.59;57.11
73692;BME280;61996;49.910;35.562;2023-08-17T07:05:33;99928.78;;;24.65;56.75
73692;BME280;61996;49.910;35.562;2023-08-17T07:08:36;99924.25;;;24.65;56.69
73692;BME280;61996;49.910;35.562;2023-08-17T07:11:39;99922.41;;;24.66;56.93
73692;BME280;61996;49.910;35.562;2023-08-17T07:14:42;99924.75;;;24.69;56.77
73692;BME280;61996;49.910;35.562;2023-08-17T07:17:46;99923.06;;;24.68;57.04
73692;BME280;61996;49.910;35.562;2023-08-17T07:20:49;99923.75;;;24.70;57.07
73692;BME280;61996;49.910;35.562;2023-08-17T07:23:53;99915.69;;;24.70;56.98
73692;BME280;61996;49.910;35.562;2023-08-17T07:26:56;99919.03;;;24.72;56.79
73692;BME280;61996;49.910;35.562;2023-08-17T07:30:02;99913.66;;;24.72;56.77
73692;BME280;61996;49.910;35.562;2023-08-17T07:33:07;99907.25;;;24.73;56.95
73692;BME280;61996;49.910;35.562;2023-08-17T07:36:10;99908.75;;;24.75;56.55
73692;BME280;61996;49.910;35.562;2023-08-17T07:39:13;99913.28;;;24.75;56.79
73692;BME280;61996;49.910;35.562;2023-08-17T07:42:15;99910.59;;;24.75;56.62
73692;BME280;61996;49.910;35.562;2023-08-17T07:45:18;99912.13;;;24.85;56.48
73692;BME280;61996;49.910;35.562;2023-08-17T07:48:23;99910.75;;;24.81;56.61
73692;BME280;61996;49.910;35.562;2023-08-17T07:51:25;99912.97;;;24.78;56.44
73692;BME280;61996;49.910;35.562;2023-08-17T07:54:31;99914.47;;;24.80;56.55
73692;BME280;61996;49.910;35.562;2023-08-17T07:57:35;99912.63;;;24.81;56.48
73692;BME280;61996;49.910;35.562;2023-08-17T08:00:38;99914.28;;;24.82;56.51
73692;BME280;61996;49.910;35.562;2023-08-17T08:03:42;99915.13;;;24.82;56.63
73692;BME280;61996;49.910;35.562;2023-08-17T08:06:45;99908.06;;;24.81;56.58
73692;BME280;61996;49.910;35.562;2023-08-17T08:09:48;99905.91;;;24.85;56.72
73692;BME280;61996;49.910;35.562;2023-08-17T08:12:51;99905.06;;;24.84;56.65
73692;BME280;61996;49.910;35.562;2023-08-17T08:15:54;99903.22;;;24.85;56.68
73692;BME280;61996;49.910;35.562;2023-08-17T08:18:58;99896.16;;;24.84;56.62
73692;BME280;61996;49.910;35.562;2023-08-17T08:22:01;99893.28;;;24.85;56.66
73692;BME280;61996;49.910;35.562;2023-08-17T08:25:04;99894.97;;;24.86;56.50
73692;BME280;61996;49.910;35.562;2023-08-17T08:28:07;99897.47;;;24.88;56.39
73692;BME280;61996;49.910;35.562;2023-08-17T08:31:10;99898.31;;;24.88;56.59
73692;BME280;61996;49.910;35.562;2023-08-17T08:34:14;99895.63;;;24.88;56.51
73692;BME280;61996;49.910;35.562;2023-08-17T08:37:17;99896.47;;;24.89;56.59
73692;BME280;61996;49.910;35.562;2023-08-17T08:40:19;99893.78;;;24.89;56.46
73692;BME280;61996;49.910;35.562;2023-08-17T08:43:29;99895.47;;;24.90;56.42
73692;BME280;61996;49.910;35.562;2023-08-17T08:46:32;99891.78;;;24.91;56.51
73692;BME280;61996;49.910;35.562;2023-08-17T08:49:38;99893.44;;;24.92;56.40
73692;BME280;61996;49.910;35.562;2023-08-17T08:52:46;99882.69;;;24.92;56.21
73692;BME280;61996;49.910;35.562;2023-08-17T08:55:54;99889.38;;;24.96;56.28
73692;BME280;61996;49.910;35.562;2023-08-17T08:58:57;99880.66;;;24.94;56.46
73692;BME280;61996;49.910;35.562;2023-08-17T09:02:01;99888.38;;;24.97;56.33
73692;BME280;61996;49.910;35.562;2023-08-17T09:05:08;99883.00;;;24.97;56.44
73692;BME280;61996;49.910;35.562;2023-08-17T09:08:11;99884.31;;;25.01;56.25
73692;BME280;61996;49.910;35.562;2023-08-17T09:11:18;99881.81;;;25.00;56.30
73692;BME280;61996;49.910;35.562;2023-08-17T09:14:20;99874.41;;;25.02;56.47
73692;BME280;61996;49.910;35.562;2023-08-17T09:17:23;99878.94;;;25.09;56.23
73692;BME280;61996;49.910;35.562;2023-08-17T09:20:38;99879.59;;;25.03;56.04
73692;BME280;61996;49.910;35.562;2023-08-17T09:23:50;99881.34;;;25.04;56.02
73692;BME280;61996;49.910;35.562;2023-08-17T09:26:58;99884.16;;;25.03;56.21
73692;BME280;61996;49.910;35.562;2023-08-17T09:30:02;99884.03;;;25.04;56.25
73692;BME280;61996;49.910;35.562;2023-08-17T09:33:06;99878.47;;;25.06;56.22
73692;BME280;61996;49.910;35.562;2023-08-17T09:36:10;99884.88;;;25.05;56.09
73692;BME280;61996;49.910;35.562;2023-08-17T09:39:15;99881.34;;;25.04;56.17
73692;BME280;61996;49.910;35.562;2023-08-17T09:42:18;99876.78;;;25.05;56.22
73692;BME280;61996;49.910;35.562;2023-08-17T09:45:21;99881.34;;;25.04;56.20
73692;BME280;61996;49.910;35.562;2023-08-17T09:48:24;99871.88;;;25.08;56.09
73692;BME280;61996;49.910;35.562;2023-08-17T09:51:34;99875.41;;;25.09;56.05
73692;BME280;61996;49.910;35.562;2023-08-17T09:54:37;99877.97;;;25.10;55.96
73692;BME280;61996;49.910;35.562;2023-08-17T09:57:40;99876.94;;;25.11;56.27
73692;BME280;61996;49.910;35.562;2023-08-17T10:00:44;99880.28;;;25.13;56.34
73692;BME280;61996;49.910;35.562;2023-08-17T10:03:51;99873.56;;;25.18;56.29
73692;BME280;61996;49.910;35.562;2023-08-17T10:06:58;99874.88;;;25.22;56.13
73692;BME280;61996;49.910;35.562;2023-08-17T10:10:02;99870.50;;;25.21;56.16
73692;BME280;61996;49.910;35.562;2023-08-17T10:13:07;99876.91;;;25.20;56.03
73692;BME280;61996;49.910;35.562;2023-08-17T10:16:13;99866.59;;;25.31;56.17
73692;BME280;61996;49.910;35.562;2023-08-17T10:19:22;99872.31;;;25.28;56.18
73692;BME280;61996;49.910;35.562;2023-08-17T10:22:32;99867.78;;;25.29;56.19
73692;BME280;61996;49.910;35.562;2023-08-17T10:25:36;99866.94;;;25.28;55.85
73692;BME280;61996;49.910;35.562;2023-08-17T10:28:39;99872.97;;;25.30;56.08
73692;BME280;61996;49.910;35.562;2023-08-17T10:31:43;99873.16;;;25.29;56.30
73692;BME280;61996;49.910;35.562;2023-08-17T10:34:47;99865.72;;;25.31;56.09
73692;BME280;61996;49.910;35.562;2023-08-17T10:37:52;99868.28;;;25.32;55.88
73692;BME280;61996;49.910;35.562;2023-08-17T10:44:37;99859.00;;;25.35;55.92
73692;BME280;61996;49.910;35.562;2023-08-17T10:47:40;99850.41;;;25.39;55.71
73692;BME280;61996;49.910;35.562;2023-08-17T10:50:44;99852.41;;;25.46;55.53
73692;BME280;61996;49.910;35.562;2023-08-17T10:54:02;99851.38;;;25.47;55.91
73692;BME280;61996;49.910;35.562;2023-08-17T11:00:31;99854.06;;;25.47;55.43
73692;BME280;61996;49.910;35.562;2023-08-17T11:03:34;99855.75;;;25.48;55.37
73692;BME280;61996;49.910;35.562;2023-08-17T11:06:38;99851.19;;;25.48;55.37
73692;BME280;61996;49.910;35.562;2023-08-17T11:09:42;99846.47;;;25.50;55.39
73692;BME280;61996;49.910;35.562;2023-08-17T11:12:45;99845.44;;;25.51;55.44
73692;BME280;61996;49.910;35.562;2023-08-17T11:15:54;99844.44;;;25.52;55.36
73692;BME280;61996;49.910;35.562;2023-08-17T11:18:57;99841.75;;;25.52;55.18
73692;BME280;61996;49.910;35.562;2023-08-17T11:22:00;99839.72;;;25.54;55.24
73692;BME280;61996;49.910;35.562;2023-08-17T11:25:05;99843.25;;;25.55;55.21
73692;BME280;61996;49.910;35.562;2023-08-17T11:28:08;99835.63;;;25.58;55.12
73692;BME280;61996;49.910;35.562;2023-08-17T11:31:13;99844.41;;;25.60;54.86
73692;BME280;61996;49.910;35.562;2023-08-17T11:34:17;99841.84;;;25.59;55.00
73692;BME280;61996;49.910;35.562;2023-08-17T11:37:20;99840.69;;;25.61;54.97
73692;BME280;61996;49.910;35.562;2023-08-17T11:40:28;99843.00;;;25.64;55.08
73692;BME280;61996;49.910;35.562;2023-08-17T11:43:32;99838.63;;;25.63;55.11
73692;BME280;61996;49.910;35.562;2023-08-17T11:46:35;99831.22;;;25.65;54.57
73692;BME280;61996;49.910;35.562;2023-08-17T11:49:38;99829.19;;;25.67;54.71
73692;BME280;61996;49.910;35.562;2023-08-17T11:52:43;99830.03;;;25.68;54.67
73692;BME280;61996;49.910;35.562;2023-08-17T11:55:48;99833.56;;;25.68;54.63
73692;BME280;61996;49.910;35.562;2023-08-17T11:58:56;99832.53;;;25.69;54.66
73692;BME280;61996;49.910;35.562;2023-08-17T12:01:59;99828.53;;;25.74;54.39
73692;BME280;61996;49.910;35.562;2023-08-17T12:05:04;99822.28;;;25.73;54.46
73692;BME280;61996;49.910;35.562;2023-08-17T12:08:08;99829.16;;;25.76;54.40
73692;BME280;61996;49.910;35.562;2023-08-17T12:11:12;99823.59;;;25.77;54.63
73692;BME280;61996;49.910;35.562;2023-08-17T12:14:15;99826.28;;;25.77;54.61
73692;BME280;61996;49.910;35.562;2023-08-17T12:17:18;99824.09;;;25.81;54.41
73692;BME280;61996;49.910;35.562;2023-08-17T12:20:22;99823.25;;;25.80;54.18
73692;BME280;61996;49.910;35.562;2023-08-17T12:23:24;99832.63;;;25.84;54.31
73692;BME280;61996;49.910;35.562;2023-08-17T12:26:29;99823.53;;;25.85;54.21
73692;BME280;61996;49.910;35.562;2023-08-17T12:29:45;99825.03;;;25.88;54.10
73692;BME280;61996;49.910;35.562;2023-08-17T12:32:48;99830.91;;;25.91;54.03
73692;BME280;61996;49.910;35.562;2023-08-17T12:35:51;99819.09;;;25.92;54.58
73692;BME280;61996;49.910;35.562;2023-08-17T12:38:55;99811.13;;;25.99;53.83
73692;BME280;61996;49.910;35.562;2023-08-17T12:41:59;99813.19;;;25.97;54.23
73692;BME280;61996;49.910;35.562;2023-08-17T12:45:02;99825.63;;;25.98;53.81
73692;BME280;61996;49.910;35.562;2023-08-17T12:48:06;99817.31;;;26.08;53.38
73692;BME280;61996;49.910;35.562;2023-08-17T12:51:09;99816.19;;;26.02;53.87
73692;BME280;61996;49.910;35.562;2023-08-17T12:54:12;99815.78;;;26.05;53.89
73692;BME280;61996;49.910;35.562;2023-08-17T12:57:16;99814.97;;;26.05;53.70
73692;BME280;61996;49.910;35.562;2023-08-17T13:00:19;99816.44;;;26.07;53.62
73692;BME280;61996;49.910;35.562;2023-08-17T13:03:22;99810.91;;;26.09;53.33
73692;BME280;61996;49.910;35.562;2023-08-17T13:06:25;99815.06;;;26.11;53.70
73692;BME280;61996;49.910;35.562;2023-08-17T13:09:44;99822.97;;;26.13;53.48
73692;BME280;61996;49.910;35.562;2023-08-17T13:12:49;99811.34;;;26.12;53.55
73692;BME280;61996;49.910;35.562;2023-08-17T13:15:56;99812.88;;;26.15;53.50
73692;BME280;61996;49.910;35.562;2023-08-17T13:18:59;99806.91;;;26.19;53.43
73692;BME280;61996;49.910;35.562;2023-08-17T13:22:02;99815.56;;;26.15;53.54
73692;BME280;61996;49.910;35.562;2023-08-17T13:25:05;99822.06;;;26.20;53.40
73692;BME280;61996;49.910;35.562;2023-08-17T13:28:10;99819.22;;;26.22;53.23
73692;BME280;61996;49.910;35.562;2023-08-17T13:31:12;99820.19;;;26.21;53.26
73692;BME280;61996;49.910;35.562;2023-08-17T13:34:25;99812.59;;;26.24;53.18
73692;BME280;61996;49.910;35.562;2023-08-17T13:37:28;99815.94;;;26.27;53.37
73692;BME280;61996;49.910;35.562;2023-08-17T13:40:31;99813.25;;;26.27;53.29
73692;BME280;61996;49.910;35.562;2023-08-17T13:43:36;99817.06;;;26.32;53.06
73692;BME280;61996;49.910;35.562;2023-08-17T13:46:39;99806.47;;;26.31;53.31
73692;BME280;61996;49.910;35.562;2023-08-17T13:49:42;99814.56;;;26.31;53.47
73692;BME280;61996;49.910;35.562;2023-08-17T13:52:45;99807.50;;;26.30;53.27
73692;BME280;61996;49.910;35.562;2023-08-17T13:55:48;99807.97;;;26.33;53.28
73692;BME280;61996;49.910;35.562;2023-08-17T13:58:52;99807.13;;;26.33;53.05
73692;BME280;61996;49.910;35.562;2023-08-17T14:01:55;99807.13;;;26.33;53.17
73692;BME280;61996;49.910;35.562;2023-08-17T14:04:58;99803.22;;;26.35;53.29
73692;BME280;61996;49.910;35.562;2023-08-17T14:08:02;99805.06;;;26.35;53.12
73692;BME280;61996;49.910;35.562;2023-08-17T14:11:05;99799.69;;;26.35;53.14
73692;BME280;61996;49.910;35.562;2023-08-17T14:14:10;99800.72;;;26.34;53.06
73692;BME280;61996;49.910;35.562;2023-08-17T14:17:13;99798.00;;;26.34;53.12
73692;BME280;61996;49.910;35.562;2023-08-17T14:20:16;99802.69;;;26.40;53.08
73692;BME280;61996;49.910;35.562;2023-08-17T14:23:18;99796.81;;;26.36;53.01
73692;BME280;61996;49.910;35.562;2023-08-17T14:26:21;99798.31;;;26.39;53.14
73692;BME280;61996;49.910;35.562;2023-08-17T14:29:25;99802.88;;;26.38;52.93
73692;BME280;61996;49.910;35.562;2023-08-17T14:32:28;99800.00;;;26.40;53.09
73692;BME280;61996;49.910;35.562;2023-08-17T14:35:35;99803.19;;;26.43;53.11
73692;BME280;61996;49.910;35.562;2023-08-17T14:38:38;99800.00;;;26.40;53.10
73692;BME280;61996;49.910;35.562;2023-08-17T14:41:41;99795.94;;;26.44;52.86
73692;BME280;61996;49.910;35.562;2023-08-17T14:44:48;99804.38;;;26.41;53.18
73692;BME280;61996;49.910;35.562;2023-08-17T14:47:51;99793.41;;;26.42;52.98
73692;BME280;61996;49.910;35.562;2023-08-17T14:50:54;99791.09;;;26.39;53.04
73692;BME280;61996;49.910;35.562;2023-08-17T14:53:57;99790.22;;;26.39;53.08
73692;BME280;61996;49.910;35.562;2023-08-17T14:57:00;99788.19;;;26.41;53.07
73692;BME280;61996;49.910;35.562;2023-08-17T15:00:05;99787.00;;;26.43;52.93
73692;BME280;61996;49.910;35.562;2023-08-17T15:03:08;99785.69;;;26.39;52.89
73692;BME280;61996;49.910;35.562;2023-08-17T15:06:11;99786.34;;;26.41;53.23
73692;BME280;61996;49.910;35.562;2023-08-17T15:09:33;99787.00;;;26.43;53.07
73692;BME280;61996;49.910;35.562;2023-08-17T15:12:36;99778.91;;;26.43;52.80
73692;BME280;61996;49.910;35.562;2023-08-17T15:15:40;99776.38;;;26.42;52.95
73692;BME280;61996;49.910;35.562;2023-08-17T15:18:44;99780.09;;;26.41;53.01
73692;BME280;61996;49.910;35.562;2023-08-17T15:21:47;99781.63;;;26.43;53.31
73692;BME280;61996;49.910;35.562;2023-08-17T15:24:50;99773.41;;;26.37;53.26
73692;BME280;61996;49.910;35.562;2023-08-17T15:27:53;99772.56;;;26.36;53.30
73692;BME280;61996;49.910;35.562;2023-08-17T15:31:03;99775.06;;;26.38;53.38
73692;BME280;61996;49.910;35.562;2023-08-17T15:34:07;99767.31;;;26.35;53.08
73692;BME280;61996;49.910;35.562;2023-08-17T15:37:10;99764.63;;;26.35;53.42
73692;BME280;61996;49.910;35.562;2023-08-17T15:40:12;99774.56;;;26.34;53.38
73692;BME280;61996;49.910;35.562;2023-08-17T15:43:15;99771.06;;;26.34;53.54
73692;BME280;61996;49.910;35.562;2023-08-17T15:46:19;99776.00;;;26.30;53.44
73692;BME280;61996;49.910;35.562;2023-08-17T15:49:22;99780.69;;;26.28;53.55
73692;BME280;61996;49.910;35.562;2023-08-17T15:52:25;99780.91;;;26.27;53.77
73692;BME280;61996;49.910;35.562;2023-08-17T15:55:28;99779.53;;;26.31;53.40
73692;BME280;61996;49.910;35.562;2023-08-17T15:58:31;99781.00;;;26.33;53.24
73692;BME280;61996;49.910;35.562;2023-08-17T16:01:35;99771.06;;;26.34;53.51
73692;BME280;61996;49.910;35.562;2023-08-17T16:04:38;99775.16;;;26.30;53.53
73692;BME280;61996;49.910;35.562;2023-08-17T16:07:41;99783.34;;;26.36;53.40
73692;BME280;61996;49.910;35.562;2023-08-17T16:10:44;99783.88;;;26.32;53.55
73692;BME280;61996;49.910;35.562;2023-08-17T16:13:47;99778.50;;;26.32;53.50